Terminal Aerodrome Forecast
Issued by NWS Wilmington, OH

Current Version | Previous Version | Graphics & Text | Print | Product List | Glossary On
Versions: 1 2 3 4 5 6 7 8 9 10 11 12 13 14 15 16 17 18 19 20 21 22 23
352
FTUS41 KILN 270534
TAFCVG
TAF
KCVG 270534Z 2706/2812 23005KT P6SM SCT100 BKN250
     FM271400 13004KT P6SM SCT025 BKN080
     FM272000 17006KT P6SM VCSH SCT025 BKN100
     FM280000 16005KT P6SM -SHRA VCTS SCT025CB OVC070
     FM280600 19004KT 6SM -SHRA BKN015 OVC025
     FM280800 20004KT 3SM -SHRA OVC007=

USA.gov is the U.S. government's official web portal to all federal, state and local government web resources and services.